Time;durP1;ratioP1;P1;durP2;ratioP2;P2;SDS_P1;SDS_P2;PMS_P1;PMS_P2;Temp;Humidity;BMP_temperature;BMP_pressure;BME280_temperature;BME280_humidity;BME280_pressure;Samples;Min_cycle;Max_cycle;Signal;HPM_P1;HPM_P2
2022/10/25 00:01:32;;;;;;;16.05;1.70;;;;;;;;;;4986746;28;20026;-85
2022/10/25 00:03:57;;;;;;;9.88;1.52;;;;;;;;;;4995962;28;20045;-85
2022/10/25 00:06:23;;;;;;;8.60;1.45;;;;;;;;;;5005115;28;20060;-85
2022/10/25 00:08:48;;;;;;;8.82;3.00;;;;;;;;;;5020223;28;20018;-84
2022/10/25 00:11:18;;;;;;;10.18;2.13;;;;;;;;;;5003675;28;20394;-85
2022/10/25 00:13:43;;;;;;;8.57;1.73;;;;;;;;;;5004944;28;20005;-85
2022/10/25 00:16:13;;;;;;;18.00;2.58;;;;;;;;;;4985518;28;20072;-84
2022/10/25 00:18:38;;;;;;;14.90;2.22;;;;;;;;;;4974799;28;20025;-85
2022/10/25 00:21:03;;;;;;;5.73;1.13;;;;;;;;;;4972866;28;20105;-85
2022/10/25 00:23:28;;;;;;;6.95;1.02;;;;;;;;;;4984022;28;20765;-84
2022/10/25 00:26:04;;;;;;;10.03;1.73;;;;;;;;;;4977391;28;20021;-85
2022/10/25 00:28:29;;;;;;;6.25;1.40;;;;;;;;;;5007870;28;20310;-83
2022/10/25 00:31:01;;;;;;;13.32;3.70;;;;;;;;;;5004242;28;20140;-85
2022/10/25 00:33:28;;;;;;;12.85;2.38;;;;;;;;;;4966937;28;20185;-85
2022/10/25 00:35:53;;;;;;;17.55;2.45;;;;;;;;;;4990476;28;20141;-84
2022/10/25 00:38:18;;;;;;;18.07;1.97;;;;;;;;;;4976940;28;20794;-85
2022/10/25 00:40:43;;;;;;;6.43;1.20;;;;;;;;;;4980730;28;20250;-83
2022/10/25 00:43:08;;;;;;;13.50;2.23;;;;;;;;;;4987780;28;20857;-85
2022/10/25 00:45:34;;;;;;;12.90;2.40;;;;;;;;;;5000013;28;20277;-84
2022/10/25 00:48:03;;;;;;;17.80;2.42;;;;;;;;;;5004828;28;20014;-85
2022/10/25 00:50:29;;;;;;;5.95;1.27;;;;;;;;;;4977193;28;20483;-85
2022/10/25 00:52:55;;;;;;;9.68;1.58;;;;;;;;;;4987284;28;20022;-85
2022/10/25 00:55:22;;;;;;;9.38;2.17;;;;;;;;;;5020691;28;20022;-85
2022/10/25 00:57:52;;;;;;;9.05;1.77;;;;;;;;;;4977982;28;20022;-85
2022/10/25 01:00:17;;;;;;;13.57;1.77;;;;;;;;;;5007149;28;20022;-85
2022/10/25 01:02:43;;;;;;;8.55;1.85;;;;;;;;;;4983595;28;20490;-85
2022/10/25 01:05:08;;;;;;;14.95;2.05;;;;;;;;;;4983060;28;20422;-85
2022/10/25 01:07:34;;;;;;;16.33;1.70;;;;;;;;;;4989023;28;20019;-84
2022/10/25 01:09:59;;;;;;;13.88;2.03;;;;;;;;;;4971751;28;20019;-84
2022/10/25 01:12:24;;;;;;;8.95;1.38;;;;;;;;;;4992784;28;20556;-85
2022/10/25 01:14:50;;;;;;;7.83;1.37;;;;;;;;;;4991789;28;20030;-85
2022/10/25 01:17:23;;;;;;;7.53;1.73;;;;;;;;;;4991104;28;20250;-85
2022/10/25 01:20:04;;;;;;;14.63;2.95;;;;;;;;;;4992177;28;20019;-84
2022/10/25 01:22:29;;;;;;;;;;;;;;;;;;4983224;28;20069;-85
2022/10/25 01:25:01;;;;;;;11.60;1.70;;;;;;;;;;4995566;28;19909;-85
2022/10/25 01:27:35;;;;;;;8.00;1.55;;;;;;;;;;4969895;28;20110;-85
2022/10/25 01:30:03;;;;;;;16.95;1.75;;;;;;;;;;4981949;28;20080;-86
2022/10/25 01:32:29;;;;;;;12.23;1.92;;;;;;;;;;4989058;28;20033;-84
2022/10/25 01:35:03;;;;;;;12.33;1.53;;;;;;;;;;4991701;28;20534;-85
2022/10/25 01:37:31;;;;;;;12.15;3.58;;;;;;;;;;4992203;28;20744;-85
2022/10/25 01:40:02;;;;;;;9.52;1.33;;;;;;;;;;4968986;28;20026;-85
2022/10/25 01:42:40;;;;;;;7.00;1.02;;;;;;;;;;5003339;28;20490;-84
2022/10/25 01:45:13;;;;;;;13.57;1.58;;;;;;;;;;4986874;28;20107;-85
2022/10/25 01:47:44;;;;;;;12.05;1.70;;;;;;;;;;4985303;28;20019;-85
2022/10/25 01:50:15;;;;;;;14.15;1.60;;;;;;;;;;4977477;28;20026;-86
2022/10/25 01:52:40;;;;;;;12.88;2.08;;;;;;;;;;5009207;28;20022;-84
2022/10/25 01:55:06;;;;;;;9.50;1.30;;;;;;;;;;5001429;28;20014;-84
2022/10/25 01:57:50;;;;;;;20.10;2.30;;;;;;;;;;4993568;28;20693;-86
2022/10/25 02:00:16;;;;;;;17.45;1.77;;;;;;;;;;5006079;28;20490;-85
2022/10/25 02:02:51;;;;;;;10.23;1.77;;;;;;;;;;5010023;28;20413;-85
2022/10/25 02:05:28;;;;;;;12.02;1.73;;;;;;;;;;4992453;28;20022;-85
2022/10/25 02:07:53;;;;;;;21.83;2.42;;;;;;;;;;5010480;28;20021;-85
2022/10/25 02:10:22;;;;;;;13.33;1.63;;;;;;;;;;5010132;28;20022;-84
2022/10/25 02:12:47;;;;;;;12.93;1.98;;;;;;;;;;4982845;28;20257;-85
2022/10/25 02:15:23;;;;;;;11.23;2.03;;;;;;;;;;4972596;28;20014;-84
2022/10/25 02:17:53;;;;;;;16.33;2.10;;;;;;;;;;4977601;28;20267;-83
2022/10/25 02:20:20;;;;;;;6.97;1.30;;;;;;;;;;4987031;28;20026;-84
2022/10/25 02:22:46;;;;;;;12.35;1.70;;;;;;;;;;4988980;28;20418;-86
2022/10/25 02:25:12;;;;;;;7.47;1.08;;;;;;;;;;4989311;28;20101;-84
2022/10/25 02:27:38;;;;;;;9.00;1.90;;;;;;;;;;4984238;28;20022;-85
2022/10/25 02:30:04;;;;;;;11.40;1.30;;;;;;;;;;4991021;28;20368;-85
2022/10/25 02:32:29;;;;;;;5.00;1.20;;;;;;;;;;4975576;28;20076;-84
2022/10/25 02:34:54;;;;;;;11.00;1.20;;;;;;;;;;4969907;28;20070;-85
2022/10/25 02:37:19;;;;;;;5.45;0.75;;;;;;;;;;4980456;28;20637;-85
2022/10/25 02:39:45;;;;;;;14.57;1.95;;;;;;;;;;4972034;28;20497;-85
2022/10/25 02:42:10;;;;;;;8.53;1.57;;;;;;;;;;4969772;28;20110;-85
2022/10/25 02:44:35;;;;;;;7.75;2.15;;;;;;;;;;4972757;28;20262;-84
2022/10/25 02:47:00;;;;;;;2.97;1.23;;;;;;;;;;4966406;28;20022;-85
2022/10/25 02:49:26;;;;;;;7.33;1.40;;;;;;;;;;4979648;28;20298;-84
2022/10/25 02:51:51;;;;;;;15.50;1.55;;;;;;;;;;4982652;28;20374;-85
2022/10/25 02:54:16;;;;;;;5.37;1.50;;;;;;;;;;4975664;28;20038;-84
2022/10/25 02:56:41;;;;;;;11.88;3.38;;;;;;;;;;4957930;28;20288;-85
2022/10/25 02:59:09;;;;;;;14.25;1.80;;;;;;;;;;4981223;28;20022;-85
2022/10/25 03:01:35;;;;;;;10.20;1.95;;;;;;;;;;4990378;28;20030;-83
2022/10/25 03:04:00;;;;;;;6.20;2.73;;;;;;;;;;5002249;28;20027;-84
2022/10/25 03:06:25;;;;;;;14.98;2.90;;;;;;;;;;5004590;28;20287;-84
2022/10/25 03:08:50;;;;;;;4.72;1.38;;;;;;;;;;4983087;28;20107;-84
2022/10/25 03:11:16;;;;;;;10.03;1.17;;;;;;;;;;4995582;28;20083;-84
2022/10/25 03:13:41;;;;;;;8.15;2.33;;;;;;;;;;4987602;28;20265;-84
2022/10/25 03:16:07;;;;;;;10.85;1.50;;;;;;;;;;4979316;28;20113;-85
2022/10/25 03:18:32;;;;;;;9.05;1.83;;;;;;;;;;4977451;28;20022;-85
2022/10/25 03:21:00;;;;;;;12.30;1.27;;;;;;;;;;4978143;28;20125;-85
2022/10/25 03:23:26;;;;;;;16.70;1.92;;;;;;;;;;4968172;28;20358;-84
2022/10/25 03:25:52;;;;;;;15.57;2.20;;;;;;;;;;4983913;28;20100;-85
2022/10/25 03:28:18;;;;;;;8.90;1.40;;;;;;;;;;4968809;28;20030;-85
2022/10/25 03:30:43;;;;;;;11.00;1.83;;;;;;;;;;4964778;28;20080;-84
2022/10/25 03:33:08;;;;;;;7.93;1.03;;;;;;;;;;4977285;28;20293;-85
2022/10/25 03:35:33;;;;;;;7.63;1.33;;;;;;;;;;4967368;28;20785;-85
2022/10/25 03:37:59;;;;;;;8.73;1.70;;;;;;;;;;4975821;28;20101;-84
2022/10/25 03:40:24;;;;;;;11.18;1.63;;;;;;;;;;4986909;28;20340;-85
2022/10/25 03:42:49;;;;;;;11.13;1.70;;;;;;;;;;5000035;28;20027;-85
2022/10/25 03:45:14;;;;;;;15.13;1.57;;;;;;;;;;4978132;28;20289;-85
2022/10/25 03:47:40;;;;;;;9.93;1.80;;;;;;;;;;4985230;28;20274;-84
2022/10/25 03:50:05;;;;;;;11.82;1.35;;;;;;;;;;4972085;28;20093;-84
2022/10/25 03:52:31;;;;;;;7.97;1.50;;;;;;;;;;4992698;28;20077;-85
2022/10/25 03:54:56;;;;;;;8.13;1.50;;;;;;;;;;4994675;28;20042;-84
2022/10/25 03:57:21;;;;;;;14.30;1.30;;;;;;;;;;4988352;28;20102;-84
2022/10/25 03:59:46;;;;;;;9.20;3.40;;;;;;;;;;4998936;28;20635;-85
2022/10/25 04:02:12;;;;;;;8.85;1.55;;;;;;;;;;4992377;28;20269;-86
2022/10/25 04:04:37;;;;;;;8.50;1.60;;;;;;;;;;4992330;28;20031;-85
2022/10/25 04:07:03;;;;;;;10.80;2.60;;;;;;;;;;4985907;28;20084;-84
2022/10/25 04:09:28;;;;;;;10.00;1.43;;;;;;;;;;4975993;28;20896;-85
2022/10/25 04:11:53;;;;;;;9.55;1.90;;;;;;;;;;4988170;28;20289;-83
2022/10/25 04:14:18;;;;;;;10.77;1.90;;;;;;;;;;4994448;28;20073;-85
2022/10/25 04:16:44;;;;;;;14.07;2.80;;;;;;;;;;4971700;28;20819;-85
2022/10/25 04:19:09;;;;;;;9.17;1.67;;;;;;;;;;4976234;28;20501;-84
2022/10/25 04:21:34;;;;;;;6.57;1.60;;;;;;;;;;4979576;28;20282;-85
2022/10/25 04:23:59;;;;;;;16.53;2.40;;;;;;;;;;4986491;28;20017;-84
2022/10/25 04:26:24;;;;;;;17.20;2.65;;;;;;;;;;4985663;28;21348;-84
2022/10/25 04:28:50;;;;;;;13.38;1.98;;;;;;;;;;4977888;28;20533;-84
2022/10/25 04:31:16;;;;;;;16.35;2.38;;;;;;;;;;4982640;28;20034;-84
2022/10/25 04:33:41;;;;;;;14.98;2.00;;;;;;;;;;4986574;28;20092;-85
2022/10/25 04:36:06;;;;;;;14.43;1.90;;;;;;;;;;4963802;28;20061;-84
2022/10/25 04:38:32;;;;;;;10.50;2.20;;;;;;;;;;4997864;28;20051;-84
2022/10/25 04:40:58;;;;;;;13.23;2.30;;;;;;;;;;4988298;28;20022;-84
2022/10/25 04:43:24;;;;;;;7.95;2.33;;;;;;;;;;4965159;28;20285;-84
2022/10/25 04:45:49;;;;;;;11.20;1.98;;;;;;;;;;4977945;28;20022;-84
2022/10/25 04:48:15;;;;;;;16.92;2.08;;;;;;;;;;4981532;28;20372;-84
2022/10/25 04:50:40;;;;;;;6.35;2.10;;;;;;;;;;4973693;28;20434;-83
2022/10/25 04:53:05;;;;;;;21.20;2.25;;;;;;;;;;4973351;28;20080;-84
2022/10/25 04:55:31;;;;;;;11.32;2.75;;;;;;;;;;4978784;28;20430;-83
2022/10/25 04:57:56;;;;;;;12.68;2.00;;;;;;;;;;4980178;28;20018;-83
2022/10/25 05:00:21;;;;;;;15.52;2.83;;;;;;;;;;4985447;28;20023;-84
2022/10/25 05:02:47;;;;;;;13.57;2.65;;;;;;;;;;4987372;28;20017;-83
2022/10/25 05:05:12;;;;;;;14.97;2.93;;;;;;;;;;4992941;28;20109;-83
2022/10/25 05:07:37;;;;;;;11.38;2.28;;;;;;;;;;4976631;28;20274;-83
2022/10/25 05:10:02;;;;;;;13.30;2.13;;;;;;;;;;4985146;28;20054;-83
2022/10/25 05:12:27;;;;;;;18.85;4.82;;;;;;;;;;4977122;28;20282;-85
2022/10/25 05:14:53;;;;;;;11.83;2.50;;;;;;;;;;5007127;28;20073;-83
2022/10/25 05:17:18;;;;;;;12.05;2.35;;;;;;;;;;4993028;28;20297;-84
2022/10/25 05:19:43;;;;;;;6.40;2.13;;;;;;;;;;4978529;28;20096;-83
2022/10/25 05:22:08;;;;;;;11.20;2.53;;;;;;;;;;4988880;28;20836;-84
2022/10/25 05:24:34;;;;;;;11.77;2.03;;;;;;;;;;4969159;28;20284;-85
2022/10/25 05:26:59;;;;;;;10.55;3.22;;;;;;;;;;4984733;28;20028;-84
2022/10/25 05:29:24;;;;;;;15.85;3.60;;;;;;;;;;4969748;28;20035;-83
2022/10/25 05:31:49;;;;;;;9.70;3.15;;;;;;;;;;4972698;28;20057;-84
2022/10/25 05:34:15;;;;;;;9.10;2.47;;;;;;;;;;4982409;28;20045;-85
2022/10/25 05:36:40;;;;;;;16.73;2.27;;;;;;;;;;4984494;28;20045;-83
2022/10/25 05:39:05;;;;;;;15.07;2.17;;;;;;;;;;4972010;28;20286;-84
2022/10/25 05:41:30;;;;;;;8.85;2.10;;;;;;;;;;4973749;28;20030;-84
2022/10/25 05:43:56;;;;;;;13.20;2.00;;;;;;;;;;4973637;28;20014;-84
2022/10/25 05:46:22;;;;;;;8.52;1.85;;;;;;;;;;4989202;28;20030;-84
2022/10/25 05:48:48;;;;;;;11.13;1.85;;;;;;;;;;4985601;28;20025;-84
2022/10/25 05:51:19;;;;;;;7.63;1.67;;;;;;;;;;4981639;28;20030;-85
2022/10/25 05:53:48;;;;;;;8.23;2.60;;;;;;;;;;5000482;28;20094;-84
2022/10/25 05:56:14;;;;;;;12.05;2.42;;;;;;;;;;4988666;28;20018;-85
2022/10/25 05:58:40;;;;;;;14.57;2.33;;;;;;;;;;4983460;28;20026;-85
2022/10/25 06:01:06;;;;;;;18.75;2.47;;;;;;;;;;4988432;28;20026;-84
2022/10/25 06:03:31;;;;;;;17.15;2.85;;;;;;;;;;4973032;28;20113;-84
2022/10/25 06:06:01;;;;;;;14.50;2.42;;;;;;;;;;4991019;28;20153;-85
2022/10/25 06:08:26;;;;;;;17.00;2.53;;;;;;;;;;4968590;28;20410;-85
2022/10/25 06:10:51;;;;;;;19.42;2.80;;;;;;;;;;4986714;28;20281;-84
2022/10/25 06:13:16;;;;;;;12.45;2.90;;;;;;;;;;4969913;28;20019;-85
2022/10/25 06:15:41;;;;;;;20.47;2.80;;;;;;;;;;4999571;28;20014;-85
2022/10/25 06:18:07;;;;;;;12.93;2.70;;;;;;;;;;4973907;28;20686;-86
2022/10/25 06:20:32;;;;;;;14.07;3.00;;;;;;;;;;4974299;28;20170;-86
2022/10/25 06:22:58;;;;;;;11.57;3.03;;;;;;;;;;4978054;28;20308;-85
2022/10/25 06:25:23;;;;;;;16.02;3.45;;;;;;;;;;4969253;28;20026;-84
2022/10/25 06:27:49;;;;;;;12.60;2.90;;;;;;;;;;4994486;28;20022;-84
2022/10/25 06:30:14;;;;;;;20.03;3.53;;;;;;;;;;4990254;28;20018;-85
2022/10/25 06:32:39;;;;;;;19.33;2.43;;;;;;;;;;5026912;23;20366;-67
2022/10/25 06:35:04;;;;;;;12.00;2.53;;;;;;;;;;5043946;28;20260;-67
2022/10/25 06:37:30;;;;;;;9.75;3.22;;;;;;;;;;5046326;28;20769;-66
2022/10/25 06:39:55;;;;;;;6.70;2.60;;;;;;;;;;5045934;28;20021;-67
2022/10/25 06:42:20;;;;;;;16.03;2.70;;;;;;;;;;5046248;28;20263;-67
2022/10/25 06:44:45;;;;;;;18.90;3.63;;;;;;;;;;5045227;28;20252;-67
2022/10/25 06:47:10;;;;;;;9.80;2.73;;;;;;;;;;5047129;28;20646;-66
2022/10/25 06:49:35;;;;;;;17.23;2.88;;;;;;;;;;5043416;28;20304;-66
2022/10/25 06:52:01;;;;;;;14.23;2.85;;;;;;;;;;5046521;28;20078;-67
2022/10/25 06:54:26;;;;;;;17.80;3.10;;;;;;;;;;5045847;28;20100;-66
2022/10/25 06:56:51;;;;;;;20.30;4.95;;;;;;;;;;5044838;28;20747;-67
2022/10/25 06:59:18;;;;;;;16.65;4.13;;;;;;;;;;5046314;28;20024;-66
2022/10/25 07:01:43;;;;;;;10.40;2.65;;;;;;;;;;5043883;28;20029;-66
2022/10/25 07:04:08;;;;;;;9.57;2.73;;;;;;;;;;5033536;28;20018;-66
2022/10/25 07:06:34;;;;;;;11.27;3.77;;;;;;;;;;5030152;28;20370;-65
2022/10/25 07:08:59;;;;;;;10.68;3.58;;;;;;;;;;5029816;28;20282;-66
2022/10/25 07:11:26;;;;;;;13.98;3.42;;;;;;;;;;5030014;28;20021;-66
2022/10/25 07:13:51;;;;;;;19.88;6.30;;;;;;;;;;5029662;28;20020;-65
2022/10/25 07:16:17;;;;;;;18.88;6.68;;;;;;;;;;5030902;28;20013;-66
2022/10/25 07:18:43;;;;;;;25.92;6.38;;;;;;;;;;5029032;28;20359;-66
2022/10/25 07:21:16;;;;;;;16.60;5.93;;;;;;;;;;5030629;28;20440;-66
2022/10/25 07:23:41;;;;;;;15.68;5.68;;;;;;;;;;5027531;28;20466;-66
2022/10/25 07:26:11;;;;;;;15.32;5.68;;;;;;;;;;5029800;28;20027;-66
2022/10/25 07:28:37;;;;;;;19.13;4.00;;;;;;;;;;5029012;28;20432;-65
2022/10/25 07:31:02;;;;;;;18.48;4.65;;;;;;;;;;5029144;28;20025;-66
2022/10/25 07:33:29;;;;;;;8.17;3.43;;;;;;;;;;5028868;28;20030;-65
2022/10/25 07:35:54;;;;;;;19.30;4.00;;;;;;;;;;5029221;28;20629;-66
2022/10/25 07:38:19;;;;;;;9.33;4.47;;;;;;;;;;5028565;28;20029;-67
2022/10/25 07:40:44;;;;;;;16.83;4.53;;;;;;;;;;5030452;28;20256;-66
2022/10/25 07:43:09;;;;;;;15.07;3.63;;;;;;;;;;5026999;28;20287;-66
2022/10/25 07:45:35;;;;;;;18.15;3.90;;;;;;;;;;5029409;28;20033;-65
2022/10/25 07:48:00;;;;;;;11.20;3.33;;;;;;;;;;5029395;28;20421;-66
2022/10/25 07:50:25;;;;;;;16.67;4.03;;;;;;;;;;5030175;28;20053;-66
2022/10/25 07:52:50;;;;;;;16.37;3.80;;;;;;;;;;5028785;28;20286;-65
2022/10/25 07:55:15;;;;;;;13.25;3.90;;;;;;;;;;5028199;28;20640;-66
2022/10/25 07:57:40;;;;;;;13.60;3.93;;;;;;;;;;5027978;28;20034;-65
2022/10/25 08:00:07;;;;;;;14.27;3.47;;;;;;;;;;5030002;28;20252;-65
2022/10/25 08:02:32;;;;;;;13.90;3.55;;;;;;;;;;5028209;28;20030;-65
2022/10/25 08:04:57;;;;;;;17.87;3.57;;;;;;;;;;5029127;28;20021;-66
2022/10/25 08:07:23;;;;;;;15.50;3.37;;;;;;;;;;5029189;28;20315;-66
2022/10/25 08:09:48;;;;;;;9.73;3.13;;;;;;;;;;5029215;28;20284;-65
2022/10/25 08:12:13;;;;;;;9.67;2.47;;;;;;;;;;5029120;28;20156;-66
2022/10/25 08:14:38;;;;;;;17.13;2.95;;;;;;;;;;5029128;28;20271;-66
2022/10/25 08:17:03;;;;;;;15.33;4.63;;;;;;;;;;5029358;28;20021;-66
2022/10/25 08:19:29;;;;;;;20.37;3.70;;;;;;;;;;5029633;28;20263;-65
2022/10/25 08:21:54;;;;;;;22.63;4.17;;;;;;;;;;5031653;28;20288;-65
2022/10/25 08:24:19;;;;;;;14.13;2.90;;;;;;;;;;5030119;28;20370;-65
2022/10/25 08:26:44;;;;;;;13.73;2.73;;;;;;;;;;5033188;28;20280;-65
2022/10/25 08:29:10;;;;;;;19.88;2.97;;;;;;;;;;5031952;28;20287;-65
2022/10/25 08:31:35;;;;;;;16.40;2.70;;;;;;;;;;5033156;28;20033;-65
2022/10/25 08:34:00;;;;;;;7.40;1.95;;;;;;;;;;5031344;28;20025;-66
2022/10/25 08:36:26;;;;;;;10.50;2.30;;;;;;;;;;5033047;28;20032;-65
2022/10/25 08:38:52;;;;;;;11.43;2.75;;;;;;;;;;5032069;28;20268;-66
2022/10/25 08:41:26;;;;;;;11.27;2.25;;;;;;;;;;5032531;28;20104;-65
2022/10/25 08:43:54;;;;;;;12.40;2.70;;;;;;;;;;5032514;28;20033;-66
2022/10/25 08:46:22;;;;;;;17.00;3.00;;;;;;;;;;5032662;28;20021;-65
2022/10/25 08:48:50;;;;;;;8.88;2.42;;;;;;;;;;5032735;28;20049;-65
2022/10/25 08:51:33;;;;;;;12.82;2.47;;;;;;;;;;5033762;28;20025;-66
2022/10/25 08:54:01;;;;;;;25.50;2.80;;;;;;;;;;5031233;28;20392;-66
2022/10/25 08:56:27;;;;;;;8.35;2.22;;;;;;;;;;5032452;28;20097;-65
2022/10/25 08:58:58;;;;;;;13.00;3.20;;;;;;;;;;5032213;28;20100;-65
2022/10/25 09:01:27;;;;;;;14.52;2.78;;;;;;;;;;5031973;28;20075;-66
2022/10/25 09:03:52;;;;;;;9.18;2.08;;;;;;;;;;5031884;28;20022;-66
2022/10/25 09:06:23;;;;;;;13.93;2.40;;;;;;;;;;5032505;28;20025;-65
2022/10/25 09:09:08;;;;;;;13.65;3.22;;;;;;;;;;5032370;28;20021;-66
2022/10/25 09:11:46;;;;;;;11.95;2.47;;;;;;;;;;5032625;28;20014;-66
2022/10/25 09:14:14;;;;;;;13.20;3.08;;;;;;;;;;5032303;28;20494;-67
2022/10/25 09:16:42;;;;;;;7.93;2.63;;;;;;;;;;5032212;28;20114;-66
2022/10/25 09:19:15;;;;;;;13.68;2.20;;;;;;;;;;5032103;28;20035;-66
2022/10/25 09:21:53;;;;;;;15.32;2.83;;;;;;;;;;5031933;28;20021;-66
2022/10/25 09:24:26;;;;;;;5.70;1.88;;;;;;;;;;5032374;28;20520;-66
2022/10/25 09:26:51;;;;;;;25.10;2.85;;;;;;;;;;5029421;28;20013;-66
2022/10/25 09:29:23;;;;;;;11.45;2.55;;;;;;;;;;5031093;28;20025;-66
2022/10/25 09:31:50;;;;;;;10.52;3.15;;;;;;;;;;5030237;28;20026;-67
2022/10/25 09:34:17;;;;;;;13.82;2.20;;;;;;;;;;5032185;28;20521;-66
2022/10/25 09:36:44;;;;;;;18.15;2.92;;;;;;;;;;5031908;28;20482;-66
2022/10/25 09:39:15;;;;;;;9.50;2.20;;;;;;;;;;5030942;28;20009;-66
2022/10/25 09:41:42;;;;;;;10.27;2.58;;;;;;;;;;5031159;28;20021;-66
2022/10/25 09:44:17;;;;;;;13.95;2.30;;;;;;;;;;5030276;28;20034;-66
2022/10/25 09:46:55;;;;;;;8.10;2.38;;;;;;;;;;5031810;28;20025;-66
2022/10/25 09:49:30;;;;;;;9.70;3.17;;;;;;;;;;5028486;28;20116;-66
2022/10/25 09:52:14;;;;;;;11.40;2.28;;;;;;;;;;5019811;28;20253;-66
2022/10/25 09:54:51;;;;;;;10.45;3.10;;;;;;;;;;5031229;28;20021;-66
2022/10/25 09:57:16;;;;;;;14.80;2.22;;;;;;;;;;5027214;28;20029;-66
2022/10/25 09:59:42;;;;;;;10.15;2.80;;;;;;;;;;5031425;28;20438;-66
2022/10/25 10:02:11;;;;;;;11.07;2.63;;;;;;;;;;5030275;28;20338;-66
2022/10/25 10:04:38;;;;;;;17.33;2.30;;;;;;;;;;5031983;28;20446;-66
2022/10/25 10:07:06;;;;;;;11.65;1.75;;;;;;;;;;5031235;28;20025;-66
2022/10/25 10:09:31;;;;;;;11.48;2.97;;;;;;;;;;5031367;28;20079;-66
2022/10/25 10:11:58;;;;;;;9.85;2.50;;;;;;;;;;5031170;28;20617;-66
2022/10/25 10:14:38;;;;;;;14.73;3.53;;;;;;;;;;5030787;28;20079;-66
2022/10/25 10:17:05;;;;;;;12.97;2.07;;;;;;;;;;5030402;28;20021;-66
2022/10/25 10:19:30;;;;;;;8.80;2.10;;;;;;;;;;5031903;28;20013;-67
2022/10/25 10:22:00;;;;;;;14.90;2.00;;;;;;;;;;5031044;28;20089;-66
2022/10/25 10:24:29;;;;;;;13.68;2.13;;;;;;;;;;5030459;28;20051;-67
2022/10/25 10:26:57;;;;;;;9.45;1.80;;;;;;;;;;5030928;28;20466;-66
2022/10/25 10:29:23;;;;;;;8.82;1.75;;;;;;;;;;5030535;28;20032;-66
2022/10/25 10:31:52;;;;;;;14.88;1.98;;;;;;;;;;5028788;28;20049;-66
2022/10/25 10:34:38;;;;;;;8.77;1.95;;;;;;;;;;5025761;28;20116;-66
2022/10/25 10:37:06;;;;;;;13.43;2.00;;;;;;;;;;5021547;28;20056;-66
2022/10/25 10:39:31;;;;;;;11.35;2.08;;;;;;;;;;5031745;28;20414;-66
2022/10/25 10:42:03;;;;;;;14.60;2.28;;;;;;;;;;5030473;28;20053;-66
2022/10/25 10:44:35;;;;;;;7.85;1.95;;;;;;;;;;5029747;28;20025;-66
2022/10/25 10:47:10;;;;;;;7.90;1.30;;;;;;;;;;5030391;28;20021;-66
2022/10/25 10:49:37;;;;;;;11.73;1.88;;;;;;;;;;5032189;28;20041;-66
2022/10/25 10:52:03;;;;;;;11.43;1.38;;;;;;;;;;5031137;28;20021;-66
2022/10/25 10:54:30;;;;;;;5.00;1.30;;;;;;;;;;5029495;28;20137;-66
2022/10/25 10:56:57;;;;;;;11.27;1.60;;;;;;;;;;5030438;28;20067;-66
2022/10/25 10:59:24;;;;;;;15.35;2.25;;;;;;;;;;5030398;28;20091;-66
2022/10/25 11:01:50;;;;;;;6.22;1.27;;;;;;;;;;5030389;28;20060;-68
2022/10/25 11:04:15;;;;;;;25.30;3.43;;;;;;;;;;5030002;28;20052;-66
2022/10/25 11:06:40;;;;;;;10.20;1.30;;;;;;;;;;5029326;28;20894;-66
2022/10/25 11:09:08;;;;;;;9.50;1.63;;;;;;;;;;5028668;28;20068;-66
2022/10/25 11:11:33;;;;;;;11.90;2.25;;;;;;;;;;5030427;28;20760;-66
2022/10/25 11:14:00;;;;;;;8.00;1.40;;;;;;;;;;5029717;28;20026;-66
2022/10/25 11:16:28;;;;;;;20.88;1.90;;;;;;;;;;5029409;28;20024;-66
2022/10/25 11:19:05;;;;;;;7.18;1.42;;;;;;;;;;5030195;28;20052;-66
2022/10/25 11:21:39;;;;;;;11.52;1.05;;;;;;;;;;5028538;28;20092;-67
2022/10/25 11:24:19;;;;;;;10.43;1.80;;;;;;;;;;5028345;28;20043;-66
2022/10/25 11:26:49;;;;;;;8.63;1.42;;;;;;;;;;5030714;28;20457;-67
2022/10/25 11:29:37;;;;;;;7.43;1.38;;;;;;;;;;5028634;28;20037;-66
2022/10/25 11:32:18;;;;;;;7.55;1.27;;;;;;;;;;5029304;28;20021;-66
2022/10/25 11:34:54;;;;;;;10.25;1.05;;;;;;;;;;5029017;28;20451;-66
2022/10/25 11:37:21;;;;;;;6.53;1.48;;;;;;;;;;5024431;28;20608;-66
2022/10/25 11:40:00;;;;;;;10.98;1.27;;;;;;;;;;5029540;28;20526;-66
2022/10/25 11:42:48;;;;;;;7.13;1.45;;;;;;;;;;5026206;28;20433;-66
2022/10/25 11:45:28;;;;;;;8.23;1.77;;;;;;;;;;5028929;28;20493;-66
2022/10/25 11:48:01;;;;;;;7.05;1.40;;;;;;;;;;5025936;28;20033;-66
2022/10/25 11:50:31;;;;;;;8.55;0.80;;;;;;;;;;5028209;28;20025;-67
2022/10/25 11:53:12;;;;;;;5.45;1.27;;;;;;;;;;5029648;28;20017;-67
2022/10/25 11:55:49;;;;;;;5.07;1.30;;;;;;;;;;5028465;28;20025;-66
2022/10/25 11:58:28;;;;;;;6.03;1.30;;;;;;;;;;5029212;28;20021;-66
2022/10/25 12:00:53;;;;;;;8.20;1.17;;;;;;;;;;5025868;28;20029;-66
2022/10/25 12:03:31;;;;;;;10.25;1.35;;;;;;;;;;5028186;28;20029;-66
2022/10/25 12:06:05;;;;;;;3.08;0.80;;;;;;;;;;5029372;28;20064;-67
2022/10/25 12:08:49;;;;;;;8.85;1.50;;;;;;;;;;5028021;28;20021;-66
2022/10/25 12:11:24;;;;;;;5.78;0.98;;;;;;;;;;5028318;28;20454;-65
2022/10/25 12:13:50;;;;;;;2.97;0.65;;;;;;;;;;5024682;28;20064;-66
2022/10/25 12:16:17;;;;;;;7.43;1.08;;;;;;;;;;5029993;28;20017;-66
2022/10/25 12:18:44;;;;;;;5.15;0.82;;;;;;;;;;5024746;28;20021;-66
2022/10/25 12:21:11;;;;;;;13.25;1.58;;;;;;;;;;5027748;28;20429;-66
2022/10/25 12:23:45;;;;;;;8.02;0.93;;;;;;;;;;5027247;28;20694;-66
2022/10/25 12:26:15;;;;;;;3.70;1.00;;;;;;;;;;5027494;28;20079;-67
2022/10/25 12:28:40;;;;;;;;;;;;;;;;;;5029489;28;20017;-67
2022/10/25 12:31:09;;;;;;;7.30;1.30;;;;;;;;;;5028642;28;19913;-66
2022/10/25 12:33:44;;;;;;;3.60;0.93;;;;;;;;;;5024486;28;20079;-68
2022/10/25 12:36:17;;;;;;;7.20;1.58;;;;;;;;;;5027167;28;20024;-67
2022/10/25 12:38:42;;;;;;;9.65;1.35;;;;;;;;;;5028404;28;20032;-67
2022/10/25 12:41:14;;;;;;;8.17;1.00;;;;;;;;;;5028781;28;20037;-67
2022/10/25 12:43:42;;;;;;;11.32;1.15;;;;;;;;;;5027368;28;20040;-68
2022/10/25 12:46:28;;;;;;;10.85;1.30;;;;;;;;;;5030168;28;20440;-66
2022/10/25 12:48:54;;;;;;;9.10;1.38;;;;;;;;;;5028071;28;20030;-67
2022/10/25 12:51:19;;;;;;;6.78;1.25;;;;;;;;;;5027359;28;20030;-67
2022/10/25 12:54:04;;;;;;;4.88;1.27;;;;;;;;;;5027440;28;20025;-67
2022/10/25 12:56:53;;;;;;;7.25;0.90;;;;;;;;;;5027956;28;20021;-67
2022/10/25 12:59:30;;;;;;;5.95;0.98;;;;;;;;;;5028874;28;20051;-68
2022/10/25 13:02:11;;;;;;;7.45;0.90;;;;;;;;;;5021992;28;20042;-68
2022/10/25 13:04:55;;;;;;;6.00;0.82;;;;;;;;;;5028671;28;20052;-67
2022/10/25 13:07:21;;;;;;;10.73;2.17;;;;;;;;;;5029292;28;20113;-67
2022/10/25 13:09:46;;;;;;;9.02;1.15;;;;;;;;;;5032491;28;20021;-67
2022/10/25 13:12:14;;;;;;;2.58;0.90;;;;;;;;;;5031806;28;20036;-67
2022/10/25 13:14:44;;;;;;;6.65;1.20;;;;;;;;;;5032110;28;20017;-67
2022/10/25 13:17:15;;;;;;;11.77;2.42;;;;;;;;;;5032066;28;20696;-67
2022/10/25 13:19:41;;;;;;;10.27;1.00;;;;;;;;;;5031268;28;20017;-67
2022/10/25 13:22:11;;;;;;;6.45;1.02;;;;;;;;;;5031984;28;20814;-66
2022/10/25 13:24:40;;;;;;;7.32;1.15;;;;;;;;;;5032804;28;20028;-67
2022/10/25 13:27:11;;;;;;;8.20;2.00;;;;;;;;;;5032135;28;20052;-68
2022/10/25 13:29:47;;;;;;;8.02;1.17;;;;;;;;;;5031575;28;20108;-67
2022/10/25 13:32:17;;;;;;;6.22;1.30;;;;;;;;;;5029840;28;20037;-66
2022/10/25 13:34:42;;;;;;;4.95;0.82;;;;;;;;;;5032647;28;20424;-65
2022/10/25 13:37:29;;;;;;;8.50;1.70;;;;;;;;;;5032114;28;20029;-67
2022/10/25 13:39:55;;;;;;;4.05;0.60;;;;;;;;;;5026703;28;20303;-66
2022/10/25 13:42:31;;;;;;;3.70;0.47;;;;;;;;;;5031498;28;20665;-68
2022/10/25 13:45:03;;;;;;;7.53;1.20;;;;;;;;;;5030929;28;20497;-68
2022/10/25 13:47:39;;;;;;;3.63;0.80;;;;;;;;;;5029320;28;20018;-68
2022/10/25 13:50:25;;;;;;;2.65;0.57;;;;;;;;;;5030589;28;20026;-68
2022/10/25 13:52:56;;;;;;;1.75;0.55;;;;;;;;;;5026261;28;20437;-68
2022/10/25 13:55:22;;;;;;;6.07;1.27;;;;;;;;;;5030025;28;20060;-67
2022/10/25 13:57:50;;;;;;;2.85;0.98;;;;;;;;;;5030385;28;20112;-66
2022/10/25 14:00:28;;;;;;;10.35;1.40;;;;;;;;;;5031250;28;20096;-66
2022/10/25 14:03:21;;;;;;;4.85;0.80;;;;;;;;;;5026434;28;20021;-66
2022/10/25 14:05:52;;;;;;;8.65;1.20;;;;;;;;;;5030722;28;20021;-66
2022/10/25 14:08:35;;;;;;;4.05;1.33;;;;;;;;;;5031475;28;20524;-66
2022/10/25 14:11:06;;;;;;;5.97;0.85;;;;;;;;;;5027135;28;20481;-66
2022/10/25 14:13:50;;;;;;;5.82;0.70;;;;;;;;;;5028641;28;20130;-67
2022/10/25 14:16:22;;;;;;;4.93;0.70;;;;;;;;;;5030341;28;20034;-66
2022/10/25 14:18:49;;;;;;;5.50;0.73;;;;;;;;;;5024210;28;20013;-66
2022/10/25 14:21:14;;;;;;;4.68;0.88;;;;;;;;;;5031519;28;20405;-66
2022/10/25 14:23:40;;;;;;;8.23;1.15;;;;;;;;;;5030587;28;20032;-67
2022/10/25 14:26:11;;;;;;;6.32;0.75;;;;;;;;;;5029796;28;20489;-66
2022/10/25 14:28:37;;;;;;;8.13;1.08;;;;;;;;;;5029846;28;20482;-66
2022/10/25 14:31:06;;;;;;;6.85;0.80;;;;;;;;;;5030247;28;20025;-67
2022/10/25 14:33:32;;;;;;;6.72;0.70;;;;;;;;;;5027312;28;20429;-66
2022/10/25 14:36:03;;;;;;;5.43;0.70;;;;;;;;;;5030066;28;20018;-67
2022/10/25 14:38:28;;;;;;;1.63;0.60;;;;;;;;;;5029152;28;20110;-66
2022/10/25 14:41:01;;;;;;;3.50;0.70;;;;;;;;;;5030921;28;20506;-66
2022/10/25 14:43:26;;;;;;;11.48;1.00;;;;;;;;;;5028764;28;20333;-67